Time;durP1;ratioP1;P1;durP2;ratioP2;P2;SDS_P1;SDS_P2;PMS_P1;PMS_P2;Temp;Humidity;BMP_temperature;BMP_pressure;BME280_temperature;BME280_humidity;BME280_pressure;Samples;Min_cycle;Max_cycle;Signal;HPM_P1;HPM_P2
2021/10/25 00:01:32;;;;;;;5.78;2.85;;;;;;;17.46;33.49;101224.70;1695538;82;20954;-70
2021/10/25 00:03:59;;;;;;;6.15;2.80;;;;;;;17.48;33.40;101222.69;1685928;82;21147;-70
2021/10/25 00:06:26;;;;;;;5.08;2.40;;;;;;;17.42;33.38;101224.30;1665934;84;21218;-69
2021/10/25 00:08:53;;;;;;;6.25;2.80;;;;;;;17.48;33.22;101224.81;1676994;83;21060;-70
2021/10/25 00:11:21;;;;;;;5.97;2.20;;;;;;;17.44;33.08;101224.11;1674383;83;20920;-69
2021/10/25 00:13:47;;;;;;;4.45;1.87;;;;;;;17.34;33.16;101227.66;1678918;83;21544;-70
2021/10/25 00:16:14;;;;;;;4.22;2.10;;;;;;;17.34;33.04;101239.00;1675409;83;21051;-70
2021/10/25 00:18:42;;;;;;;4.08;1.85;;;;;;;17.21;33.09;101237.19;1678556;83;21024;-70
2021/10/25 00:21:09;;;;;;;4.65;2.35;;;;;;;16.99;33.10;101241.03;1676103;83;21137;-70
2021/10/25 00:23:37;;;;;;;4.35;1.85;;;;;;;16.85;33.13;101248.09;1667913;84;21347;-71
2021/10/25 00:26:04;;;;;;;4.37;2.35;;;;;;;16.90;33.01;101242.24;1676571;83;21545;-69
2021/10/25 00:28:31;;;;;;;4.47;2.17;;;;;;;16.96;32.94;101241.42;1677486;83;21469;-69
2021/10/25 00:30:57;;;;;;;3.50;1.62;;;;;;;16.95;32.67;101250.34;1644644;85;21112;-69
2021/10/25 00:33:24;;;;;;;5.58;2.42;;;;;;;16.83;32.69;101255.91;1660677;84;21497;-69
2021/10/25 00:35:52;;;;;;;4.42;2.15;;;;;;;16.82;32.51;101256.89;1658402;84;21861;-68
2021/10/25 00:38:19;;;;;;;4.83;2.10;;;;;;;16.73;32.53;101269.41;1662245;82;21027;-70
2021/10/25 00:40:46;;;;;;;4.78;2.45;;;;;;;16.91;32.17;101271.52;1647062;84;21554;-71
2021/10/25 00:43:14;;;;;;;3.83;1.55;;;;;;;16.76;31.93;101276.44;1658489;84;21146;-69
2021/10/25 00:45:41;;;;;;;5.40;1.92;;;;;;;16.65;31.88;101269.08;1655798;84;21355;-69
2021/10/25 00:48:08;;;;;;;5.70;2.00;;;;;;;16.45;31.90;101286.12;1655644;84;20976;-70
2021/10/25 00:50:34;;;;;;;4.00;2.02;;;;;;;16.50;31.59;101290.28;1648535;84;21158;-70
2021/10/25 00:53:00;;;;;;;2.65;0.98;;;;;;;16.43;31.45;101288.64;1659389;84;21356;-70
2021/10/25 00:55:27;;;;;;;2.83;1.20;;;;;;;16.29;31.53;101295.17;1662480;84;21457;-69
2021/10/25 00:57:55;;;;;;;4.30;1.10;;;;;;;16.16;31.36;101302.98;1658636;84;21504;-69
2021/10/25 01:00:22;;;;;;;3.58;1.50;;;;;;;16.39;30.78;101307.14;1656350;84;21108;-69
2021/10/25 01:02:49;;;;;;;4.28;1.60;;;;;;;16.47;30.40;101311.73;1656338;84;21079;-69
2021/10/25 01:05:17;;;;;;;2.65;1.02;;;;;;;16.67;30.14;101312.34;1688436;82;21019;-69
2021/10/25 01:07:45;;;;;;;4.20;1.62;;;;;;;16.54;30.22;101326.23;1685102;82;22115;-69
2021/10/25 01:10:14;;;;;;;3.50;1.30;;;;;;;16.44;30.33;101327.09;1695436;82;21849;-69
2021/10/25 01:12:42;;;;;;;3.98;1.65;;;;;;;16.39;30.40;101329.51;1695470;82;21026;-71
2021/10/25 01:15:09;;;;;;;3.60;1.42;;;;;;;16.58;30.14;101335.37;1675175;84;21501;-69
2021/10/25 01:17:37;;;;;;;2.52;1.20;;;;;;;16.59;29.98;101336.17;1695695;82;21327;-70
2021/10/25 01:20:05;;;;;;;3.50;1.20;;;;;;;16.62;29.78;101341.05;1694920;82;21212;-69
2021/10/25 01:22:32;;;;;;;2.87;1.25;;;;;;;16.39;30.02;101353.20;1695098;82;21324;-70
2021/10/25 01:24:59;;;;;;;3.42;1.10;;;;;;;16.30;30.27;101355.18;1686048;82;21521;-69
2021/10/25 01:27:25;;;;;;;3.22;0.90;;;;;;;16.31;30.27;101360.74;1694943;82;20975;-69
2021/10/25 01:29:54;;;;;;;2.90;1.40;;;;;;;16.40;30.14;101364.86;1694848;82;21030;-70
2021/10/25 01:32:20;;;;;;;3.02;1.25;;;;;;;16.42;29.98;101377.30;1695488;82;21176;-69
2021/10/25 01:34:48;;;;;;;3.17;1.10;;;;;;;16.45;29.90;101376.92;1695388;82;20864;-69
2021/10/25 01:37:15;;;;;;;2.35;1.10;;;;;;;16.43;29.91;101373.66;1695418;82;20991;-69
2021/10/25 01:39:42;;;;;;;3.15;1.32;;;;;;;16.38;29.98;101380.52;1692891;82;21082;-69
2021/10/25 01:42:09;;;;;;;3.77;1.37;;;;;;;15.77;30.71;101388.48;1687809;82;21097;-70
2021/10/25 01:44:37;;;;;;;2.98;1.20;;;;;;;15.83;30.68;101393.98;1695558;82;21168;-69
2021/10/25 01:47:04;;;;;;;3.55;1.55;;;;;;;15.70;30.79;101390.75;1695729;82;20860;-69
2021/10/25 01:49:32;;;;;;;3.67;1.87;;;;;;;16.26;30.32;101391.59;1684864;82;21524;-71
2021/10/25 01:52:00;;;;;;;4.60;2.30;;;;;;;16.22;30.33;101401.38;1694831;82;21463;-70
2021/10/25 01:54:27;;;;;;;3.40;1.92;;;;;;;16.18;30.43;101408.84;1695630;82;21344;-70
2021/10/25 01:56:53;;;;;;;2.25;1.15;;;;;;;16.21;30.48;101405.83;1695901;82;21143;-70
2021/10/25 01:59:20;;;;;;;1.98;1.05;;;;;;;16.21;30.64;101409.78;1695818;82;21050;-69
2021/10/25 02:01:47;;;;;;;2.98;0.90;;;;;;;16.28;30.74;101413.74;1694701;82;21529;-69
2021/10/25 02:04:13;;;;;;;2.58;1.07;;;;;;;16.32;30.79;101415.48;1695447;83;21019;-69
2021/10/25 02:06:40;;;;;;;3.92;1.00;;;;;;;16.11;31.08;101429.02;1696646;82;21149;-70
2021/10/25 02:09:07;;;;;;;3.62;1.17;;;;;;;16.05;31.19;101421.88;1694369;83;21970;-69
2021/10/25 02:11:33;;;;;;;2.30;0.98;;;;;;;16.06;31.14;101418.23;1695262;83;21015;-69
2021/10/25 02:14:03;;;;;;;2.02;0.80;;;;;;;15.96;31.30;101415.95;1694354;82;21479;-69
2021/10/25 02:16:30;;;;;;;2.85;1.02;;;;;;;15.99;31.29;101427.91;1672948;83;20996;-69
2021/10/25 02:18:57;;;;;;;2.15;0.85;;;;;;;15.95;31.23;101424.04;1681479;82;21051;-70
2021/10/25 02:21:25;;;;;;;3.90;1.30;;;;;;;15.79;31.30;101429.84;1691281;82;21119;-69
2021/10/25 02:23:52;;;;;;;2.55;1.10;;;;;;;15.61;31.71;101437.82;1652616;84;21017;-69
2021/10/25 02:26:18;;;;;;;2.10;0.70;;;;;;;15.57;31.67;101434.78;1662411;84;22050;-69
2021/10/25 02:28:46;;;;;;;1.90;0.90;;;;;;;15.65;31.54;101441.26;1708328;82;21067;-69
2021/10/25 02:31:13;;;;;;;2.90;1.20;;;;;;;15.61;31.62;101443.92;1689371;83;21506;-70
2021/10/25 02:33:41;;;;;;;2.67;1.40;;;;;;;15.77;31.28;101452.09;1689649;83;21372;-69
2021/10/25 02:36:09;;;;;;;4.17;1.52;;;;;;;15.69;31.30;101451.70;1691199;83;21437;-69
2021/10/25 02:38:37;;;;;;;3.25;1.47;;;;;;;15.45;31.51;101462.52;1690770;83;20988;-69
2021/10/25 02:41:05;;;;;;;3.12;1.40;;;;;;;15.26;31.79;101459.48;1681052;83;21475;-69
2021/10/25 02:43:33;;;;;;;3.98;1.80;;;;;;;14.93;32.21;101470.10;1690542;83;21015;-69
2021/10/25 02:46:00;;;;;;;4.97;1.72;;;;;;;14.67;32.51;101471.36;1690849;83;21163;-68
2021/10/25 02:48:27;;;;;;;3.87;1.85;;;;;;;14.62;32.66;101475.50;1691116;83;21150;-69
2021/10/25 02:50:54;;;;;;;3.37;1.30;;;;;;;14.63;32.72;101479.77;1680859;83;21004;-69
2021/10/25 02:53:21;;;;;;;2.55;1.00;;;;;;;14.70;32.42;101487.22;1690662;83;21067;-69
2021/10/25 02:55:49;;;;;;;3.50;1.30;;;;;;;14.77;32.13;101488.98;1689957;83;21117;-69
2021/10/25 02:58:17;;;;;;;2.47;1.10;;;;;;;14.81;32.03;101489.40;1691519;83;21131;-70
2021/10/25 03:00:45;;;;;;;2.50;1.12;;;;;;;14.88;31.82;101490.81;1695988;80;21063;-69
2021/10/25 03:03:11;;;;;;;2.92;1.32;;;;;;;14.96;31.66;101495.97;1698956;82;21090;-69
2021/10/25 03:05:40;;;;;;;2.15;0.95;;;;;;;14.91;31.78;101500.95;1701304;82;21048;-69
2021/10/25 03:08:07;;;;;;;2.55;1.02;;;;;;;14.72;32.04;101503.61;1707489;83;21068;-71
2021/10/25 03:10:37;;;;;;;2.62;1.22;;;;;;;14.91;31.99;101511.46;1700298;82;21055;-70
2021/10/25 03:13:03;;;;;;;2.95;1.10;;;;;;;15.00;31.96;101504.64;1694776;81;20941;-70
2021/10/25 03:15:30;;;;;;;3.50;1.32;;;;;;;15.01;32.00;101509.39;1701132;83;21584;-70
2021/10/25 03:17:58;;;;;;;2.87;1.10;;;;;;;14.78;32.36;101505.53;1707057;83;22226;-70
2021/10/25 03:20:28;;;;;;;3.60;1.60;;;;;;;14.63;32.61;101512.08;1705233;83;20930;-70
2021/10/25 03:22:55;;;;;;;2.80;1.47;;;;;;;14.86;32.39;101512.01;1697996;83;21459;-69
2021/10/25 03:25:22;;;;;;;2.80;1.55;;;;;;;14.97;32.04;101505.00;1651011;85;21071;-69
2021/10/25 03:27:49;;;;;;;2.72;0.95;;;;;;;14.89;32.16;101506.88;1700609;81;20988;-69
2021/10/25 03:30:18;;;;;;;3.75;0.82;;;;;;;14.94;32.05;101511.11;1706280;82;21086;-69
2021/10/25 03:32:46;;;;;;;2.02;0.78;;;;;;;14.84;32.17;101511.36;1703083;82;21036;-69
2021/10/25 03:35:32;;;;;;;2.85;0.90;;;;;;;14.81;32.16;101515.18;1703505;83;21229;-72
2021/10/25 03:38:00;;;;;;;1.55;0.65;;;;;;;14.92;31.92;101510.45;1702746;81;21036;-68
2021/10/25 03:40:29;;;;;;;1.77;0.78;;;;;;;14.77;31.96;101515.69;1706128;82;21016;-69
2021/10/25 03:42:56;;;;;;;4.53;1.10;;;;;;;14.70;32.13;101522.66;1698365;83;21692;-70
2021/10/25 03:45:35;;;;;;;3.65;0.88;;;;;;;14.82;32.06;101519.42;1708398;81;21666;-69
2021/10/25 03:48:08;;;;;;;2.80;1.00;;;;;;;14.93;31.90;101522.61;1691987;83;21132;-64
2021/10/25 03:50:32;;;;;;;;;;;;;;;15.05;31.70;101519.84;1677567;83;21108;-66
2021/10/25 03:53:12;;;;;;;2.30;0.57;;;;;;;15.12;31.52;101524.69;1690956;82;20212;-65
2021/10/25 03:55:51;;;;;;;1.90;0.82;;;;;;;15.22;31.37;101525.20;1705696;81;21107;-64
2021/10/25 04:28:11;;;;;;;2.70;0.98;;;;;;;15.27;31.46;101575.91;1682920;83;21848;-65
2021/10/25 04:30:38;;;;;;;4.05;1.15;;;;;;;15.22;31.41;101582.19;1684219;82;20998;-67
2021/10/25 04:33:05;;;;;;;3.62;1.07;;;;;;;15.41;31.32;101587.39;1691865;82;21184;-70
2021/10/25 04:35:37;;;;;;;4.70;1.27;;;;;;;15.35;31.37;101593.39;1663275;84;21144;-66
2021/10/25 04:38:20;;;;;;;3.05;1.25;;;;;;;15.35;31.39;101587.64;1692439;83;21515;-71
2021/10/25 04:40:47;;;;;;;6.25;1.05;;;;;;;15.43;31.19;101594.11;1695022;83;21132;-66
2021/10/25 04:43:15;;;;;;;2.85;1.02;;;;;;;15.53;31.01;101589.87;1694248;83;21064;-67
2021/10/25 04:45:42;;;;;;;3.75;1.30;;;;;;;15.50;30.88;101596.83;1693055;83;20974;-66
2021/10/25 04:48:09;;;;;;;4.08;1.27;;;;;;;15.41;30.93;101605.28;1697175;83;21010;-66
2021/10/25 04:50:53;;;;;;;4.15;1.47;;;;;;;15.30;30.97;101605.73;1696839;83;22488;-65
2021/10/25 04:53:40;;;;;;;4.60;1.45;;;;;;;15.43;30.76;101605.93;1676497;83;21178;-64
2021/10/25 04:56:07;;;;;;;4.80;1.52;;;;;;;15.40;30.75;101611.55;1683538;83;20962;-69
2021/10/25 04:58:35;;;;;;;4.60;1.98;;;;;;;15.54;30.55;101613.36;1697541;83;21858;-65
2021/10/25 05:01:01;;;;;;;5.10;2.00;;;;;;;15.43;30.62;101620.88;1678626;83;21022;-65
2021/10/25 05:03:28;;;;;;;3.67;1.70;;;;;;;15.60;30.37;101629.38;1706972;83;20948;-65
2021/10/25 05:05:55;;;;;;;3.45;1.60;;;;;;;15.55;30.42;101625.49;1697440;82;21230;-73
2021/10/25 05:08:26;;;;;;;4.15;1.20;;;;;;;15.56;30.43;101636.31;1703113;82;21437;-70
2021/10/25 05:10:52;;;;;;;2.90;1.10;;;;;;;15.55;30.52;101639.13;1698035;82;21047;-66
2021/10/25 05:13:18;;;;;;;4.92;1.17;;;;;;;15.49;30.80;101644.63;1675542;84;21016;-67
2021/10/25 05:15:45;;;;;;;6.00;1.40;;;;;;;15.91;30.48;101647.59;1676749;83;21075;-67
2021/10/25 05:18:13;;;;;;;2.90;1.20;;;;;;;16.24;30.07;101654.05;1666801;83;21530;-67
2021/10/25 05:20:41;;;;;;;4.08;1.07;;;;;;;16.51;29.80;101643.29;1705801;83;21326;-65
2021/10/25 05:23:10;;;;;;;2.98;1.00;;;;;;;16.52;29.45;101646.77;1669532;85;21588;-66
2021/10/25 05:25:37;;;;;;;2.62;1.05;;;;;;;17.36;28.80;101656.56;1651749;85;21001;-66
2021/10/25 05:28:05;;;;;;;3.25;0.90;;;;;;;17.91;28.10;101662.23;1666497;83;21479;-69
2021/10/25 05:30:32;;;;;;;1.82;0.75;;;;;;;18.09;27.55;101670.93;1697192;83;21162;-68
2021/10/25 05:32:59;;;;;;;3.00;0.80;;;;;;;18.03;27.46;101670.90;1700366;82;21087;-67
2021/10/25 05:35:26;;;;;;;4.47;0.70;;;;;;;18.14;27.37;101664.54;1697998;83;20976;-69
2021/10/25 05:37:52;;;;;;;3.93;0.63;;;;;;;18.67;26.79;101671.25;1701940;82;21372;-67
2021/10/25 05:40:19;;;;;;;6.17;1.00;;;;;;;19.32;25.82;101658.74;1699940;82;21321;-70
2021/10/25 05:42:48;;;;;;;2.83;1.00;;;;;;;19.71;25.42;101671.61;1698242;82;21397;-70
2021/10/25 05:45:15;;;;;;;1.90;0.60;;;;;;;20.89;24.57;101670.63;1699555;82;21264;-67
2021/10/25 05:47:43;;;;;;;2.17;0.80;;;;;;;20.89;24.57;101670.63;1695169;82;21465;-68
2021/10/25 05:50:10;;;;;;;3.40;1.20;;;;;;;21.65;23.37;101660.20;1701207;83;21682;-69
2021/10/25 05:52:37;;;;;;;2.47;1.07;;;;;;;22.19;23.08;101669.66;1695079;83;21828;-69
2021/10/25 05:55:06;;;;;;;5.37;1.17;;;;;;;22.40;22.50;101668.34;1691865;82;21833;-69
2021/10/25 05:57:32;;;;;;;2.37;1.00;;;;;;;22.30;22.63;101675.53;1696111;83;20936;-67
2021/10/25 05:59:59;;;;;;;3.07;1.33;;;;;;;22.42;21.43;101683.00;1667461;84;21054;-67
2021/10/25 06:02:34;;;;;;;5.93;2.00;;;;;;;21.96;22.07;101688.41;1656328;85;21044;-65
2021/10/25 06:05:08;;;;;;;3.37;1.33;;;;;;;21.86;22.43;101681.51;1646921;85;21092;-68
2021/10/25 06:07:36;;;;;;;4.42;1.07;;;;;;;22.06;22.30;101685.23;1657588;85;22157;-68
2021/10/25 06:10:05;;;;;;;2.60;0.90;;;;;;;22.36;22.06;101683.12;1679775;84;20992;-68
2021/10/25 06:12:38;;;;;;;2.30;0.90;;;;;;;22.59;21.75;101685.31;1682918;83;21107;-68
2021/10/25 06:15:16;;;;;;;1.97;0.63;;;;;;;22.97;21.33;101684.64;1650685;84;21637;-67
2021/10/25 06:17:50;;;;;;;2.60;1.10;;;;;;;23.07;20.88;101682.23;1628565;86;20969;-70
2021/10/25 06:20:11;;;;;;;2.90;1.00;;;;;;;23.04;20.99;101692.00;1679217;83;22044;-69
2021/10/25 06:22:38;;;;;;;2.30;0.90;;;;;;;23.17;21.02;101689.61;1676236;84;21018;-67
2021/10/25 06:25:09;;;;;;;2.70;1.03;;;;;;;23.57;20.42;101680.91;1688804;84;20958;-65
2021/10/25 06:27:36;;;;;;;2.17;1.10;;;;;;;23.43;20.48;101693.12;1674893;84;21921;-67
2021/10/25 06:30:04;;;;;;;2.93;1.03;;;;;;;23.53;20.54;101687.22;1671830;84;21094;-71
2021/10/25 06:32:31;;;;;;;2.97;1.40;;;;;;;23.35;20.24;101693.48;1681663;84;22324;-68
2021/10/25 06:35:01;;;;;;;4.00;1.83;;;;;;;23.05;20.34;101695.73;1636523;87;21617;-68
2021/10/25 06:37:55;;;;;;;6.80;4.13;;;;;;;22.31;21.07;101701.05;1631407;87;21096;-69
2021/10/25 06:40:20;;;;;;;12.33;7.67;;;;;;;22.79;20.99;101702.27;1683971;84;21005;-68
2021/10/25 06:42:48;;;;;;;12.87;8.20;;;;;;;23.20;20.87;101696.61;1635810;87;21036;-70
2021/10/25 06:45:17;;;;;;;11.73;6.57;;;;;;;23.16;20.78;101700.78;1637648;86;21128;-69
2021/10/25 06:47:45;;;;;;;7.60;4.37;;;;;;;23.76;20.59;101701.83;1687172;84;21581;-69
2021/10/25 06:50:15;;;;;;;6.10;3.17;;;;;;;24.16;20.01;101692.99;1679640;84;21563;-70
2021/10/25 06:52:49;;;;;;;9.27;4.00;;;;;;;24.11;19.71;101704.09;1673865;84;20936;-69
2021/10/25 06:55:17;;;;;;;4.60;2.03;;;;;;;23.66;19.67;101704.77;1673393;84;21164;-69
2021/10/25 06:57:45;;;;;;;2.83;0.93;;;;;;;23.48;19.83;101711.84;1678734;84;21126;-68
2021/10/25 07:00:14;;;;;;;5.73;2.23;;;;;;;22.97;19.86;101719.22;1683644;84;21004;-68
2021/10/25 07:02:43;;;;;;;7.27;3.27;;;;;;;22.50;20.04;101721.23;1644714;86;21517;-69
2021/10/25 07:05:11;;;;;;;2.80;1.10;;;;;;;22.78;20.23;101728.58;1673420;84;21104;-69
2021/10/25 07:07:38;;;;;;;3.10;0.97;;;;;;;22.50;20.10;101731.03;1682027;84;21467;-69
2021/10/25 07:10:08;;;;;;;4.63;1.70;;;;;;;22.32;20.41;101727.92;1683029;84;21216;-69
2021/10/25 07:12:37;;;;;;;2.00;0.80;;;;;;;22.70;20.76;101736.08;1675962;83;21042;-68
2021/10/25 07:15:06;;;;;;;2.87;0.87;;;;;;;23.25;20.35;101733.96;1676538;83;21023;-68
2021/10/25 07:23:26;;;;;;;2.20;0.77;;;;;;;23.72;18.86;101735.30;1673806;83;21170;-67
2021/10/25 07:26:24;;;;;;;1.93;0.83;;;;;;;23.51;19.04;101733.20;1672370;84;20945;-68
2021/10/25 07:59:24;;;;;;;2.90;1.10;;;;;;;23.73;19.00;101732.11;1668236;84;21482;-68
2021/10/25 08:01:39;;;;;;;4.60;1.50;;;;;;;22.46;18.54;101751.13;1684946;83;21138;-73
2021/10/25 08:14:09;;;;;;;6.73;1.20;;;;;;;22.17;18.76;101775.33;1652125;85;21123;-68
2021/10/25 08:16:49;;;;;;;5.00;0.70;;;;;;;22.20;18.69;101765.06;1703428;82;21164;-69
2021/10/25 08:19:26;;;;;;;2.87;0.80;;;;;;;22.65;18.40;101779.27;1706385;82;21019;-71
2021/10/25 08:22:09;;;;;;;2.73;0.90;;;;;;;22.81;17.83;101777.31;1707716;81;22572;-68
2021/10/25 08:24:39;;;;;;;2.33;0.80;;;;;;;22.92;17.74;101778.91;1704213;81;20985;-70
2021/10/25 08:27:09;;;;;;;4.50;1.60;;;;;;;22.97;17.75;101777.72;1707266;81;21158;-68
2021/10/25 08:29:39;;;;;;;2.30;0.50;;;;;;;22.98;17.79;101784.66;1652124;84;21557;-69
2021/10/25 08:35:49;;;;;;;3.70;1.17;;;;;;;23.16;17.69;101783.77;1703118;81;21144;-69
2021/10/25 08:39:58;;;;;;;2.10;0.60;;;;;;;22.22;17.28;101778.92;1706169;81;21086;-71
2021/10/25 08:42:28;;;;;;;4.00;1.53;;;;;;;21.47;17.76;101782.24;1705489;81;21163;-68
2021/10/25 08:45:08;;;;;;;2.87;1.10;;;;;;;21.08;18.34;101775.70;1700937;81;21083;-69
2021/10/25 08:47:39;;;;;;;6.53;3.23;;;;;;;21.06;18.66;101769.81;1702692;81;21165;-69
2021/10/25 08:50:04;;;;;;;5.20;1.20;;;;;;;21.51;18.48;101775.47;1704976;81;20964;-69
2021/10/25 08:52:32;;;;;;;5.77;2.37;;;;;;;21.68;18.01;101767.77;1704892;82;21655;-68
2021/10/25 08:55:02;;;;;;;5.00;1.90;;;;;;;21.53;18.21;101771.58;1696044;81;21200;-69
2021/10/25 08:57:29;;;;;;;5.47;2.17;;;;;;;21.76;17.97;101766.15;1703953;82;21087;-70
2021/10/25 09:00:09;;;;;;;2.90;0.90;;;;;;;21.43;18.33;101772.58;1687042;82;21115;-68
2021/10/25 09:02:47;;;;;;;4.17;1.23;;;;;;;21.53;18.28;101770.25;1693307;82;21025;-69
2021/10/25 09:05:20;;;;;;;4.00;0.87;;;;;;;21.44;18.49;101782.19;1699971;83;21565;-67
2021/10/25 09:07:58;;;;;;;2.50;0.70;;;;;;;21.38;18.37;101784.38;1706294;82;21995;-67
2021/10/25 09:10:36;;;;;;;3.93;1.60;;;;;;;21.57;18.19;101783.89;1705937;83;21710;-70
2021/10/25 09:13:17;;;;;;;6.83;1.70;;;;;;;21.30;18.59;101781.97;1706465;82;21761;-71
2021/10/25 09:15:51;;;;;;;3.42;1.30;;;;;;;21.42;18.52;101784.75;1652820;85;21081;-69
2021/10/25 09:18:30;;;;;;;2.60;0.60;;;;;;;21.27;18.42;101781.06;1654267;83;21156;-69
2021/10/25 09:21:06;;;;;;;1.77;0.53;;;;;;;20.81;18.46;101783.55;1693012;81;21780;-70
2021/10/25 09:23:40;;;;;;;1.40;0.60;;;;;;;20.81;18.46;101783.55;1697863;82;21003;-69
2021/10/25 09:26:21;;;;;;;2.17;0.37;;;;;;;20.46;18.73;101781.27;1661109;83;22117;-71
2021/10/25 09:28:52;;;;;;;2.80;0.77;;;;;;;20.51;18.73;101776.16;1649728;86;21702;-67
2021/10/25 09:31:26;;;;;;;3.37;1.22;;;;;;;20.58;19.00;101774.30;1699283;83;21616;-70
2021/10/25 09:33:54;;;;;;;2.85;1.00;;;;;;;20.80;19.30;101773.98;1697639;83;21146;-67
2021/10/25 09:36:35;;;;;;;5.30;1.93;;;;;;;21.22;19.27;101767.66;1697961;82;20949;-68
2021/10/25 09:39:19;;;;;;;4.20;1.33;;;;;;;21.67;18.84;101769.62;1676159;83;21787;-73
2021/10/25 09:41:56;;;;;;;3.72;1.22;;;;;;;21.90;18.64;101762.84;1697262;83;21678;-67
2021/10/25 09:50:02;;;;;;;2.40;0.70;;;;;;;21.26;18.94;101761.70;1697724;83;21621;-68
2021/10/25 09:52:33;;;;;;;3.47;0.80;;;;;;;21.32;18.78;101765.30;1686537;83;21665;-70
2021/10/25 09:55:14;;;;;;;2.72;0.80;;;;;;;21.39;18.87;101764.77;1693998;82;22089;-69
2021/10/25 10:00:33;;;;;;;2.85;0.72;;;;;;;21.83;18.59;101760.25;1693206;81;21503;-69
2021/10/25 10:03:00;;;;;;;1.93;0.80;;;;;;;21.83;18.97;101756.28;1694870;83;21066;-71
2021/10/25 10:05:36;;;;;;;4.50;0.90;;;;;;;22.15;18.66;101751.63;1695053;83;21751;-70
2021/10/25 10:08:04;;;;;;;4.33;0.63;;;;;;;22.22;18.43;101752.36;1704772;82;21808;-69
2021/10/25 10:10:33;;;;;;;2.00;0.55;;;;;;;22.25;18.23;101761.73;1697552;82;21022;-68
2021/10/25 10:13:04;;;;;;;4.73;0.90;;;;;;;22.14;17.93;101759.83;1694286;81;21027;-70
2021/10/25 10:15:34;;;;;;;2.40;0.90;;;;;;;22.47;17.88;101771.37;1698419;81;21596;-68
2021/10/25 10:18:06;;;;;;;2.47;0.70;;;;;;;22.32;17.93;101769.11;1701373;81;21815;-69
2021/10/25 10:20:39;;;;;;;3.00;1.20;;;;;;;22.45;17.86;101758.28;1679587;82;21778;-68
2021/10/25 10:23:14;;;;;;;6.40;1.83;;;;;;;22.30;17.90;101758.69;1696617;83;21082;-70
2021/10/25 10:26:00;;;;;;;6.87;2.00;;;;;;;21.92;18.14;101760.24;1694336;83;22288;-69
2021/10/25 10:28:47;;;;;;;4.33;1.70;;;;;;;21.81;18.42;101765.77;1683169;83;21747;-69
2021/10/25 10:31:24;;;;;;;5.77;1.60;;;;;;;21.96;18.29;101767.25;1702161;82;23098;-69
2021/10/25 10:33:58;;;;;;;5.90;1.47;;;;;;;21.79;18.47;101773.67;1697673;81;21680;-69
2021/10/25 10:36:31;;;;;;;3.03;1.03;;;;;;;21.68;18.57;101775.21;1697873;82;21730;-70
2021/10/25 10:39:11;;;;;;;3.10;1.10;;;;;;;21.41;18.64;101775.17;1699865;82;22934;-71
2021/10/25 10:41:55;;;;;;;7.57;2.00;;;;;;;21.06;18.99;101767.66;1646037;83;22225;-71
2021/10/25 10:44:33;;;;;;;3.50;1.10;;;;;;;20.95;19.12;101771.84;1676033;83;22525;-70
2021/10/25 10:47:09;;;;;;;2.80;1.27;;;;;;;21.10;19.14;101697.25;1701770;82;21894;-69
2021/10/25 10:49:48;;;;;;;3.63;1.10;;;;;;;21.50;18.56;101761.40;1695609;82;22133;-70
2021/10/25 10:52:30;;;;;;;4.17;1.20;;;;;;;21.73;18.13;101767.39;1651063;86;21777;-73
2021/10/25 10:55:05;;;;;;;3.08;1.15;;;;;;;21.53;18.04;101770.77;1679622;83;21735;-69
2021/10/25 11:00:31;;;;;;;3.13;0.90;;;;;;;21.76;18.24;101772.78;1698406;81;21690;-70
2021/10/25 11:03:05;;;;;;;3.40;0.93;;;;;;;21.49;18.16;101762.95;1696562;83;22232;-70
2021/10/25 11:05:44;;;;;;;3.30;1.50;;;;;;;21.12;18.51;101771.59;1649214;84;22222;-69
2021/10/25 11:08:17;;;;;;;2.00;0.60;;;;;;;21.18;18.64;101777.08;1699593;82;21692;-70
2021/10/25 11:10:46;;;;;;;2.50;1.10;;;;;;;21.28;18.46;101777.38;1699042;83;22575;-71
2021/10/25 11:13:17;;;;;;;2.33;0.80;;;;;;;21.16;18.47;101779.11;1695888;83;21716;-70
2021/10/25 11:16:07;;;;;;;2.53;0.90;;;;;;;21.17;18.52;101772.77;1694502;82;21622;-71
2021/10/25 11:18:33;;;;;;;2.60;0.90;;;;;;;21.16;18.52;101780.44;1696681;83;21783;-72
2021/10/25 11:21:21;;;;;;;3.37;1.20;;;;;;;21.25;18.42;101776.48;1689994;82;22246;-71
2021/10/25 11:23:55;;;;;;;3.83;1.00;;;;;;;21.19;18.57;101783.47;1699116;83;21854;-69
2021/10/25 11:26:38;;;;;;;2.83;1.37;;;;;;;21.20;18.31;101777.66;1690311;82;21787;-70
2021/10/25 11:29:17;;;;;;;4.50;1.43;;;;;;;21.26;18.39;101774.95;1665416;84;21651;-70
2021/10/25 11:31:51;;;;;;;2.97;1.20;;;;;;;21.25;18.48;101775.16;1694311;83;22603;-70
2021/10/25 11:34:24;;;;;;;2.40;0.73;;;;;;;21.08;18.57;101787.62;1702429;83;21683;-69
2021/10/25 11:37:04;;;;;;;4.50;1.00;;;;;;;20.96;18.80;101790.68;1703868;83;22151;-70
2021/10/25 11:39:44;;;;;;;2.80;1.13;;;;;;;20.99;18.72;101786.28;1700724;83;21422;-70
2021/10/25 11:42:10;;;;;;;4.83;2.27;;;;;;;21.03;18.87;101784.83;1702345;82;21720;-69
2021/10/25 11:44:39;;;;;;;4.43;1.80;;;;;;;20.95;18.81;101790.39;1698066;83;21681;-70
2021/10/25 11:47:21;;;;;;;10.00;2.77;;;;;;;20.81;19.11;101790.98;1704335;82;22342;-70
2021/10/25 11:49:49;;;;;;;5.10;1.73;;;;;;;21.04;18.90;101785.63;1691581;83;21741;-70
2021/10/25 11:52:16;;;;;;;6.90;3.23;;;;;;;21.04;18.90;101785.63;1697461;83;21522;-69
2021/10/25 11:54:53;;;;;;;5.37;2.80;;;;;;;21.03;18.97;101778.20;1703386;83;21760;-69
2021/10/25 11:57:22;;;;;;;3.87;1.70;;;;;;;21.03;18.97;101778.20;1698368;82;21811;-69
2021/10/25 12:00:05;;;;;;;3.83;1.47;;;;;;;20.83;19.02;101778.83;1694409;82;21780;-69
2021/10/25 12:02:35;;;;;;;2.83;1.40;;;;;;;20.78;19.15;101783.45;1698418;83;22183;-69
2021/10/25 12:05:05;;;;;;;2.87;0.93;;;;;;;20.72;18.60;101786.13;1704951;83;21786;-69
2021/10/25 12:07:33;;;;;;;3.60;1.00;;;;;;;20.72;18.60;101786.13;1702578;83;21474;-68
2021/10/25 12:10:04;;;;;;;6.47;1.53;;;;;;;20.69;18.66;101792.69;1702239;83;22231;-69
2021/10/25 12:12:31;;;;;;;2.73;1.00;;;;;;;20.31;18.31;101788.67;1696730;82;21414;-68
2021/10/25 12:15:04;;;;;;;1.97;0.80;;;;;;;20.16;18.19;101790.25;1700551;82;22212;-72
2021/10/25 12:17:36;;;;;;;2.77;1.00;;;;;;;20.16;18.19;101790.25;1667436;84;21611;-69
2021/10/25 12:20:12;;;;;;;3.70;0.90;;;;;;;20.01;18.70;101790.50;1690892;82;21717;-69
2021/10/25 12:22:43;;;;;;;3.87;0.77;;;;;;;19.78;18.88;101787.50;1702834;83;21955;-68
2021/10/25 12:25:10;;;;;;;3.67;1.50;;;;;;;19.57;19.17;101794.61;1670794;84;21348;-67
2021/10/25 12:27:38;;;;;;;3.67;1.40;;;;;;;19.41;19.42;101792.38;1675212;84;21408;-67
2021/10/25 12:30:17;;;;;;;7.10;1.70;;;;;;;19.52;19.47;101792.28;1693699;81;21328;-70
2021/10/25 12:33:00;;;;;;;5.50;1.33;;;;;;;19.58;19.67;101790.13;1694714;82;21543;-68
2021/10/25 12:35:44;;;;;;;3.17;1.17;;;;;;;19.65;19.68;101794.42;1700663;83;21304;-70
2021/10/25 12:38:17;;;;;;;3.03;1.00;;;;;;;19.59;19.79;101804.48;1682201;82;21274;-70
2021/10/25 12:41:00;;;;;;;4.47;1.47;;;;;;;19.56;19.82;101802.75;1704468;83;21316;-70
2021/10/25 12:43:44;;;;;;;2.97;1.20;;;;;;;19.53;19.78;101805.30;1702189;81;21160;-69
2021/10/25 12:46:14;;;;;;;4.10;1.83;;;;;;;19.38;19.92;101804.17;1696823;82;21200;-68
2021/10/25 12:48:47;;;;;;;10.03;2.10;;;;;;;19.32;20.10;101808.12;1696924;83;21219;-68
2021/10/25 12:51:14;;;;;;;3.87;1.87;;;;;;;19.26;20.27;101802.34;1703489;82;21290;-67
2021/10/25 12:53:46;;;;;;;6.80;1.77;;;;;;;19.28;20.29;101807.75;1697719;81;21240;-67
2021/10/25 12:56:13;;;;;;;;;;;;;;;19.25;20.27;101808.15;1699480;81;21308;-70
2021/10/25 12:58:40;;;;;;;5.17;1.40;;;;;;;19.19;20.34;101804.47;1703007;81;20141;-68
2021/10/25 13:01:10;;;;;;;4.63;1.30;;;;;;;19.09;20.20;101814.64;1690318;81;21400;-68
2021/10/25 13:03:37;;;;;;;5.78;1.27;;;;;;;18.81;20.32;101814.77;1701231;81;21264;-67
2021/10/25 13:06:11;;;;;;;2.77;1.03;;;;;;;18.57;20.48;101817.93;1673506;83;21103;-67
2021/10/25 13:08:37;;;;;;;3.17;1.30;;;;;;;18.40;20.62;101818.76;1688196;83;21793;-67
2021/10/25 13:11:05;;;;;;;3.97;1.83;;;;;;;18.11;20.92;101821.98;1629581;86;21261;-67
2021/10/25 13:13:33;;;;;;;4.77;1.83;;;;;;;17.97;21.01;101816.31;1679161;84;21365;-67
2021/10/25 13:16:02;;;;;;;5.20;2.40;;;;;;;17.79;21.17;101822.58;1675440;83;21253;-67